首页
METAR-TAF:

METAR-TAF

机场 :

伯尔尼-贝尔普机场

伯尔尼, 瑞士

纬度: 46-55N, 经度: 007-30E, 海拔: 505米

当前天气观测

该预报发布于11分钟前的21:50 UTC
风速1节,风向多变
温度 10°C
湿度 82%
气压 1017 hPa
能见度10公里或以上
少量云层高于2600英尺
散云层高于5000英尺
多云层高于7000英尺

METAR: LSZB 152150Z AUTO VRB01KT 9999 FEW026 SCT050 BKN070 10/07 Q1017

时间: 00:01 (22:01 UTC)

预报

该预报发布于7小时和36分钟前的14:25 UTC
预报有效从15日的 15点(UTC)到 15日的 24点(UTC)
风速3节,风向多变
能见度10公里或以上
散云层高于700英尺
多云层高于2000英尺
短暂存在
从 15日的 15点(UTC)到 15日的 20点(UTC)
风速12节,风向西
几率 40% :
短暂存在
从 15日的 15点(UTC)到 15日的 17点(UTC)
能見度: 4000
多云层高于1400英尺
大雨

TAF: LSZB 151425Z 1515/1524 VRB03KT 9999 SCT007 BKN020 TEMPO 1515/1520 27012KT RA PROB40 TEMPO 1515/1517 4000 +RA BKN014

超过4000个机场的气象观测和天气预报(METAR&TAF报告)。

可查询的气象台以黄色和红色小点在地图上表示。

将鼠标移到小点上方,可查看气象台名称。

然后点击查看天气观测和预报。

如需切换地图:点击带黑十字的绿色按钮放大地图;点击带横线的绿色按钮缩小地图;或者点击绿色箭头查看邻近地区的地图。


METAR-TAF: